createdAt,value
2019-04-04T00:02:26.569Z,5.12
2019-04-04T00:05:15.389Z,5.05
2019-04-04T00:08:04.314Z,5.45
2019-04-04T00:10:53.128Z,5.28
2019-04-04T00:13:42.592Z,6.65
2019-04-04T00:16:32.512Z,6.03
2019-04-04T00:19:21.424Z,5.62
2019-04-04T00:22:10.247Z,5.37
2019-04-04T00:24:59.116Z,6.33
2019-04-04T00:27:47.929Z,5.45
2019-04-04T00:30:36.772Z,6.15
2019-04-04T00:33:26.265Z,6.90
2019-04-04T00:36:16.180Z,5.12
2019-04-04T00:39:25.887Z,5.90
2019-04-04T00:42:16.723Z,6.53
2019-04-04T00:45:28.727Z,6.15
2019-04-04T00:48:16.725Z,5.95
2019-04-04T00:51:07.735Z,6.83
2019-04-04T00:53:56.193Z,5.95
2019-04-04T00:56:45.029Z,5.85
2019-04-04T00:59:33.885Z,8.20
2019-04-04T01:02:15.990Z,6.40
2019-04-04T01:05:25.707Z,6.15
2019-04-04T01:08:14.537Z,6.95
2019-04-04T01:11:03.349Z,5.78
2019-04-04T01:13:52.188Z,6.25
2019-04-04T01:16:41.043Z,5.65
2019-04-04T01:19:29.840Z,5.55
2019-04-04T01:22:18.681Z,6.42
2019-04-04T01:28:22.493Z,6.78
2019-04-04T01:31:14.638Z,7.35
2019-04-04T01:34:01.935Z,8.15
2019-04-04T01:36:50.760Z,6.08
2019-04-04T01:39:39.612Z,6.72
2019-04-04T01:42:28.446Z,6.15
2019-04-04T01:45:17.265Z,6.97
2019-04-04T01:48:06.162Z,8.18
2019-04-04T01:50:55.025Z,6.90
2019-04-04T01:53:24.510Z,6.45
2019-04-04T01:56:13.365Z,6.40
2019-04-04T01:59:02.184Z,5.67
2019-04-04T02:01:51.029Z,6.55
2019-04-04T02:04:32.313Z,6.55
2019-04-04T02:07:01.900Z,7.08
2019-04-04T02:09:50.724Z,7.45
2019-04-04T02:12:39.539Z,6.53
2019-04-04T02:15:28.478Z,7.37
2019-04-04T02:18:17.314Z,7.53
2019-04-04T02:21:06.147Z,6.97
2019-04-04T02:23:54.988Z,6.90
2019-04-04T02:26:43.822Z,6.95
2019-04-04T02:29:32.633Z,5.10
2019-04-04T02:35:21.202Z,5.45
2019-04-04T02:38:10.017Z,7.78
2019-04-04T02:40:58.929Z,6.80
2019-04-04T02:43:47.748Z,8.03
2019-04-04T02:46:36.651Z,8.15
2019-04-04T02:49:28.105Z,6.60
2019-04-04T02:52:16.013Z,6.90
2019-04-04T02:58:20.187Z,8.35
2019-04-04T03:01:08.982Z,7.97
2019-04-04T03:03:50.856Z,7.83
2019-04-04T03:06:39.751Z,8.28
2019-04-04T03:09:28.596Z,7.22
2019-04-04T03:12:17.437Z,8.55
2019-04-04T03:15:27.163Z,7.37
2019-04-04T03:18:16.062Z,8.20
2019-04-04T03:21:04.984Z,8.98
2019-04-04T03:23:53.592Z,8.20
2019-04-04T03:26:42.458Z,8.40
2019-04-04T03:29:31.264Z,7.80
2019-04-04T03:32:20.111Z,8.40
2019-04-04T03:38:24.139Z,7.53
2019-04-04T03:41:13.005Z,7.42
2019-04-04T03:44:01.841Z,7.65
2019-04-04T03:46:50.757Z,7.05
2019-04-04T03:49:39.602Z,7.47
2019-04-04T03:52:28.439Z,7.30
2019-04-04T03:55:17.242Z,5.55
2019-04-04T03:58:06.108Z,5.87
2019-04-04T04:00:54.997Z,6.97
2019-04-04T04:03:36.873Z,5.85
2019-04-04T04:06:25.693Z,7.30
2019-04-04T04:09:14.537Z,4.97
2019-04-04T04:12:03.429Z,7.65
2019-04-04T04:14:54.757Z,7.78
2019-04-04T04:17:45.664Z,5.90
2019-04-04T04:20:36.195Z,6.85
2019-04-04T04:23:24.318Z,6.45
2019-04-04T04:26:14.473Z,6.45
2019-04-04T04:29:03.304Z,7.17
2019-04-04T04:31:52.130Z,5.95
2019-04-04T04:34:41.009Z,6.90
2019-04-04T04:37:29.849Z,7.35
2019-04-04T04:40:18.699Z,6.80
2019-04-04T04:43:26.563Z,6.05
2019-04-04T04:46:17.800Z,6.30
2019-04-04T04:49:05.946Z,6.12
2019-04-04T04:51:54.779Z,6.58
2019-04-04T04:54:43.625Z,6.60
2019-04-04T04:57:34.412Z,6.97
2019-04-04T05:00:23.105Z,5.12
2019-04-04T05:03:12.014Z,8.28
2019-04-04T05:05:53.793Z,7.83
2019-04-04T05:08:42.667Z,6.00
2019-04-04T05:11:51.006Z,5.33
2019-04-04T05:14:39.843Z,7.03
2019-04-04T05:17:28.673Z,6.12
2019-04-04T05:20:17.637Z,6.03
2019-04-04T05:23:06.487Z,6.90
2019-04-04T05:25:55.316Z,6.92
2019-04-04T05:28:44.149Z,6.83
2019-04-04T05:31:33.092Z,6.50
2019-04-04T05:34:21.955Z,7.58
2019-04-04T05:40:18.649Z,5.83
2019-04-04T05:43:07.475Z,6.10
2019-04-04T05:45:56.349Z,4.62
2019-04-04T05:48:45.182Z,6.25
2019-04-04T05:51:36.185Z,6.33
2019-04-04T05:54:24.560Z,6.85
2019-04-04T05:57:13.415Z,6.83
2019-04-04T06:00:02.231Z,5.90
2019-04-04T06:02:51.069Z,5.90
2019-04-04T06:05:33.516Z,6.78
2019-04-04T06:08:22.924Z,5.95
2019-04-04T06:11:11.748Z,6.25
2019-04-04T06:14:00.615Z,6.90
2019-04-04T06:16:49.412Z,6.28
2019-04-04T06:19:38.243Z,6.70
2019-04-04T06:22:27.049Z,5.53
2019-04-04T06:25:15.893Z,6.20
2019-04-04T06:28:04.870Z,6.42
2019-04-04T06:30:54.322Z,7.40
2019-04-04T06:33:44.263Z,6.00
2019-04-04T06:36:33.074Z,6.97
2019-04-04T06:39:23.019Z,6.00
2019-04-04T06:42:12.454Z,5.62
2019-04-04T06:45:01.305Z,5.53
2019-04-04T06:47:50.129Z,7.05
2019-04-04T06:50:42.763Z,7.70
2019-04-04T06:53:29.581Z,5.08
2019-04-04T06:56:18.396Z,6.03
2019-04-04T06:59:07.254Z,7.00
2019-04-04T07:01:56.076Z,6.37
2019-04-04T07:04:37.506Z,7.20
2019-04-04T07:07:26.316Z,5.78
2019-04-04T07:13:21.453Z,6.67
2019-04-04T07:16:07.023Z,6.60
2019-04-04T07:19:14.272Z,7.25
2019-04-04T07:22:01.728Z,5.97
2019-04-04T07:24:50.701Z,5.80
2019-04-04T07:27:39.588Z,6.85
2019-04-04T07:30:29.311Z,7.03
2019-04-04T07:33:21.368Z,7.75
2019-04-04T07:36:09.591Z,7.20
2019-04-04T07:39:00.322Z,6.27
2019-04-04T07:42:08.051Z,7.00
2019-04-04T07:44:56.890Z,6.35
2019-04-04T07:47:47.485Z,6.22
2019-04-04T07:50:36.314Z,6.67
2019-04-04T07:53:28.067Z,6.20
2019-04-04T07:56:15.720Z,6.97
2019-04-04T07:59:04.612Z,6.15
2019-04-04T08:01:53.458Z,6.15
2019-04-04T08:07:50.634Z,6.97
2019-04-04T08:10:39.528Z,7.15
2019-04-04T08:13:28.369Z,6.87
2019-04-04T08:16:17.192Z,6.37
2019-04-04T08:19:06.043Z,7.10
2019-04-04T08:21:54.855Z,6.42
2019-04-04T08:24:43.707Z,6.45
2019-04-04T08:27:32.526Z,6.25
2019-04-04T08:30:21.364Z,8.05
2019-04-04T08:39:34.487Z,6.70
2019-04-04T08:42:23.298Z,6.78
2019-04-04T08:45:12.206Z,6.37
2019-04-04T08:48:01.018Z,7.42
2019-04-04T08:50:49.939Z,8.18
2019-04-04T08:53:40.207Z,7.30
2019-04-04T08:56:29.330Z,6.85
2019-04-04T08:59:18.178Z,5.87
2019-04-04T09:05:14.748Z,6.35
2019-04-04T09:08:03.582Z,6.20
2019-04-04T09:10:52.498Z,6.62
2019-04-04T09:13:41.426Z,5.60
2019-04-04T09:16:30.239Z,5.30
2019-04-04T09:19:19.079Z,5.60
2019-04-04T09:22:10.823Z,5.30
2019-04-04T09:24:58.547Z,5.50
2019-04-04T09:27:47.426Z,4.72
2019-04-04T09:30:36.242Z,4.57
2019-04-04T09:33:25.161Z,5.47
2019-04-04T09:36:13.998Z,5.78
2019-04-04T09:39:02.992Z,5.08
2019-04-04T09:41:51.887Z,5.40
2019-04-04T09:44:40.720Z,4.85
2019-04-04T09:47:29.605Z,4.60
2019-04-04T09:50:18.449Z,4.17
2019-04-04T09:53:07.280Z,3.75
2019-04-04T09:55:56.135Z,3.65
2019-04-04T09:58:45.043Z,3.75
2019-04-04T10:01:33.865Z,5.47
2019-04-04T10:04:22.724Z,4.70
2019-04-04T10:07:04.710Z,4.97
2019-04-04T10:09:53.584Z,5.40
2019-04-04T10:12:42.436Z,6.58
2019-04-04T10:15:31.263Z,4.70
2019-04-04T10:18:20.111Z,5.37
2019-04-04T10:21:12.144Z,5.07
2019-04-04T10:23:59.565Z,4.67
2019-04-04T10:26:48.418Z,5.37
2019-04-04T10:29:37.291Z,5.30
2019-04-04T10:32:26.118Z,6.13
2019-04-04T10:35:15.014Z,4.93
2019-04-04T10:38:03.920Z,4.67
2019-04-04T10:40:52.781Z,5.20
2019-04-04T10:43:41.612Z,5.55
2019-04-04T10:46:30.475Z,5.25
2019-04-04T10:49:19.321Z,5.45
2019-04-04T10:52:08.255Z,4.30
2019-04-04T10:54:57.096Z,4.60
2019-04-04T10:57:45.928Z,4.22
2019-04-04T11:00:34.794Z,4.67
2019-04-04T11:03:23.608Z,4.10
2019-04-04T11:06:05.484Z,4.62
2019-04-04T11:08:54.310Z,4.75
2019-04-04T11:11:43.167Z,4.08
2019-04-04T11:14:31.773Z,4.30
2019-04-04T11:17:20.623Z,5.55
2019-04-04T11:20:09.629Z,4.17
2019-04-04T11:22:58.452Z,4.70
2019-04-04T11:25:47.344Z,4.50
2019-04-04T11:28:36.187Z,6.20
2019-04-04T11:31:25.028Z,4.62
2019-04-04T11:34:13.868Z,4.73
2019-04-04T11:37:02.796Z,6.30
2019-04-04T11:39:54.875Z,5.42
2019-04-04T11:42:42.218Z,4.97
2019-04-04T11:45:31.048Z,5.03
2019-04-04T11:48:19.870Z,5.10
2019-04-04T11:51:08.698Z,7.53
2019-04-04T11:53:57.519Z,5.70
2019-04-04T11:56:46.361Z,6.07
2019-04-04T11:59:35.168Z,4.90
2019-04-04T12:05:19.727Z,4.50
2019-04-04T12:08:01.232Z,4.80
2019-04-04T12:10:50.146Z,4.97
2019-04-04T12:13:39.014Z,5.30
2019-04-04T12:16:27.839Z,5.15
2019-04-04T12:19:16.691Z,4.62
2019-04-04T12:22:05.529Z,4.72
2019-04-04T12:24:54.368Z,5.80
2019-04-04T12:27:43.187Z,5.10
2019-04-04T12:30:32.048Z,5.87
2019-04-04T12:33:20.872Z,4.28
2019-04-04T12:36:09.790Z,4.25
2019-04-04T12:38:58.605Z,4.72
2019-04-04T12:41:47.464Z,4.62
2019-04-04T12:44:36.314Z,4.65
2019-04-04T12:47:25.148Z,4.47
2019-04-04T12:50:14.216Z,6.17
2019-04-04T12:53:03.055Z,7.97
2019-04-04T12:55:54.061Z,6.33
2019-04-04T12:58:42.465Z,5.92
2019-04-04T13:01:31.297Z,5.10
2019-04-04T13:04:30.656Z,5.47
2019-04-04T13:07:04.047Z,5.70
2019-04-04T13:09:52.890Z,5.58
2019-04-04T13:12:41.711Z,4.67
2019-04-04T13:15:30.662Z,5.10
2019-04-04T13:18:19.536Z,5.90
2019-04-04T13:21:08.502Z,5.15
2019-04-04T13:23:57.327Z,5.40
2019-04-04T13:26:46.265Z,4.67
2019-04-04T13:29:35.091Z,5.22
2019-04-04T13:32:24.119Z,4.33
2019-04-04T13:35:13.001Z,5.45
2019-04-04T13:38:01.853Z,5.25
2019-04-04T13:40:50.759Z,4.25
2019-04-04T13:43:39.590Z,5.40
2019-04-04T13:46:29.385Z,6.12
2019-04-04T13:49:19.001Z,5.45
2019-04-04T13:52:07.868Z,4.92
2019-04-04T13:54:56.690Z,5.40
2019-04-04T13:58:04.643Z,5.20
2019-04-04T14:01:12.553Z,5.17
2019-04-04T14:04:01.485Z,5.47
2019-04-04T14:06:43.353Z,5.25
2019-04-04T14:09:32.291Z,6.25
2019-04-04T14:12:21.117Z,6.08
2019-04-04T14:21:21.497Z,6.78
2019-04-04T14:24:13.772Z,6.35
2019-04-04T14:27:00.945Z,4.67
2019-04-04T14:29:49.822Z,4.72
2019-04-04T14:32:38.689Z,5.60
2019-04-04T14:35:27.577Z,5.67
2019-04-04T14:38:16.425Z,6.90
2019-04-04T14:41:11.018Z,4.92
2019-04-04T14:43:56.019Z,5.45
2019-04-04T14:46:45.611Z,4.80
2019-04-04T14:49:35.396Z,5.40
2019-04-04T14:52:24.359Z,3.85
2019-04-04T14:55:13.299Z,4.28
2019-04-04T14:58:02.152Z,5.58
2019-04-04T15:00:51.009Z,5.33
2019-04-04T15:03:42.114Z,4.90
2019-04-04T15:06:30.459Z,5.15
2019-04-04T15:09:12.103Z,4.65
2019-04-04T15:12:00.936Z,5.22
2019-04-04T15:14:49.803Z,3.90
2019-04-04T15:17:38.734Z,4.70
2019-04-04T15:20:27.927Z,5.28
2019-04-04T15:23:16.739Z,6.03
2019-04-04T15:26:05.899Z,6.80
2019-04-04T15:28:54.730Z,4.50
2019-04-04T15:31:43.570Z,4.75
2019-04-04T15:34:32.828Z,5.35
2019-04-04T15:37:21.711Z,5.30
2019-04-04T15:40:10.793Z,5.80
2019-04-04T15:42:59.651Z,5.42
2019-04-04T15:45:48.471Z,4.95
2019-04-04T15:48:37.327Z,5.55
2019-04-04T15:51:26.225Z,5.45
2019-04-04T15:54:15.090Z,4.97
2019-04-04T15:57:04.050Z,5.03
2019-04-04T15:59:52.899Z,5.28
2019-04-04T16:02:41.781Z,4.97
2019-04-04T16:05:30.560Z,5.35
2019-04-04T16:08:12.670Z,5.80
2019-04-04T16:11:01.526Z,5.72
2019-04-04T16:13:50.361Z,5.25
2019-04-04T16:16:39.251Z,5.55
2019-04-04T16:19:28.110Z,6.75
2019-04-04T16:22:16.929Z,6.15
2019-04-04T16:25:26.654Z,7.58
2019-04-04T16:28:15.459Z,6.65
2019-04-04T16:31:04.759Z,5.80
2019-04-04T16:33:53.572Z,7.08
2019-04-04T16:36:42.494Z,6.95
2019-04-04T16:39:31.417Z,7.42
2019-04-04T16:42:20.247Z,8.03
2019-04-04T16:45:09.168Z,8.10
2019-04-04T16:47:57.999Z,7.53
2019-04-04T16:50:46.882Z,6.55
2019-04-04T16:53:35.805Z,7.10
2019-04-04T16:56:24.649Z,7.15
2019-04-04T16:59:13.517Z,7.75
2019-04-04T17:02:02.331Z,7.25
2019-04-04T17:04:51.273Z,7.53
2019-04-04T17:07:40.107Z,7.50
2019-04-04T17:10:49.945Z,8.53
2019-04-04T17:13:38.763Z,6.58
2019-04-04T17:16:27.597Z,8.10
2019-04-04T17:19:16.429Z,6.62
2019-04-04T17:22:05.313Z,8.95
2019-04-04T17:25:01.428Z,10.50
2019-04-04T17:27:50.391Z,10.55
2019-04-04T17:30:39.278Z,10.20
2019-04-04T17:33:28.737Z,9.53
2019-04-04T17:36:21.265Z,9.93
2019-04-04T17:39:09.289Z,8.70
2019-04-04T17:41:58.505Z,8.23
2019-04-04T17:44:49.063Z,10.90
2019-04-04T17:47:39.792Z,11.15
2019-04-04T17:50:30.169Z,11.20
2019-04-04T17:53:20.568Z,9.83
2019-04-04T17:56:09.792Z,9.50
2019-04-04T17:58:59.998Z,12.20
2019-04-04T18:01:48.900Z,10.05
2019-04-04T18:04:47.840Z,11.10
2019-04-04T18:07:28.372Z,13.35
2019-04-04T18:10:10.451Z,16.73
2019-04-04T18:12:59.280Z,10.95
2019-04-04T18:15:48.134Z,11.53
2019-04-04T18:18:36.948Z,7.90
2019-04-04T18:21:25.803Z,13.65
2019-04-04T18:24:27.111Z,10.30
2019-04-04T18:27:05.235Z,10.30
2019-04-04T18:29:54.497Z,13.53
2019-04-04T18:32:43.412Z,11.10
2019-04-04T18:35:32.489Z,10.28
2019-04-04T18:38:42.481Z,17.45
2019-04-04T18:41:32.606Z,11.00
2019-04-04T18:44:22.108Z,15.35
2019-04-04T18:47:10.988Z,23.38
2019-04-04T18:49:59.832Z,17.37
2019-04-04T18:52:48.663Z,10.43
2019-04-04T18:58:52.145Z,11.55
2019-04-04T19:01:40.986Z,10.55
2019-04-04T19:04:29.833Z,10.45
2019-04-04T19:07:18.742Z,13.80
2019-04-04T19:10:00.504Z,14.23
2019-04-04T19:12:49.388Z,13.58
2019-04-04T19:15:38.304Z,17.70
2019-04-04T19:18:27.284Z,13.50
2019-04-04T19:21:16.596Z,15.43
2019-04-04T19:24:05.540Z,10.20
2019-04-04T19:26:54.450Z,9.50
2019-04-04T19:29:43.296Z,10.53
2019-04-04T19:32:32.291Z,10.43
2019-04-04T19:35:21.209Z,13.30
2019-04-04T19:38:10.057Z,12.43
2019-04-04T19:40:58.914Z,12.03
2019-04-04T19:43:47.731Z,12.40
2019-04-04T19:46:37.489Z,12.60
2019-04-04T19:49:27.311Z,13.95
2019-04-04T19:52:16.133Z,12.78
2019-04-04T19:58:33.446Z,12.70
2019-04-04T20:01:22.279Z,15.68
2019-04-04T20:04:11.124Z,11.93
2019-04-04T20:06:59.950Z,13.30
2019-04-04T20:09:41.925Z,12.85
2019-04-04T20:12:30.779Z,10.32
2019-04-04T20:15:19.631Z,11.75
2019-04-04T20:18:08.582Z,11.12
2019-04-04T20:20:57.455Z,10.05
2019-04-04T20:23:46.284Z,11.63
2019-04-04T20:26:35.123Z,11.00
2019-04-04T20:29:23.976Z,11.08
2019-04-04T20:32:12.830Z,11.57
2019-04-04T20:35:01.676Z,11.33
2019-04-04T20:37:50.574Z,10.55
2019-04-04T20:40:39.434Z,11.35
2019-04-04T20:43:28.263Z,12.40
2019-04-04T20:46:17.110Z,11.10
2019-04-04T20:49:06.117Z,10.70
2019-04-04T20:51:54.957Z,10.93
2019-04-04T20:54:43.826Z,11.68
2019-04-04T20:57:32.658Z,11.40
2019-04-04T21:00:21.594Z,11.93
2019-04-04T21:03:10.518Z,11.57
2019-04-04T21:05:59.453Z,12.78
2019-04-04T21:08:48.279Z,12.75
2019-04-04T21:11:29.941Z,11.15
2019-04-04T21:14:18.762Z,11.57
2019-04-04T21:17:07.599Z,10.00
2019-04-04T21:23:11.737Z,14.33
2019-04-04T21:26:00.588Z,13.22
2019-04-04T21:28:49.421Z,13.50
2019-04-04T21:31:38.248Z,12.18
2019-04-04T21:34:27.125Z,12.28
2019-04-04T21:37:15.928Z,12.63
2019-04-04T21:43:19.735Z,15.45
2019-04-04T21:46:08.580Z,14.15
2019-04-04T21:48:57.454Z,16.65
2019-04-04T21:51:46.272Z,18.40
2019-04-04T21:54:35.304Z,16.97
2019-04-04T21:57:24.129Z,16.85
2019-04-04T22:00:13.392Z,16.12
2019-04-04T22:03:02.301Z,12.78
2019-04-04T22:05:51.218Z,14.75
2019-04-04T22:08:40.039Z,13.40
2019-04-04T22:11:22.177Z,13.05
2019-04-04T22:14:21.015Z,14.83
2019-04-04T22:17:01.564Z,13.65
2019-04-04T22:19:50.398Z,13.72
2019-04-04T22:22:39.250Z,11.10
2019-04-04T22:25:28.141Z,11.50
2019-04-04T22:28:17.035Z,10.58
2019-04-04T22:31:05.963Z,12.10
2019-04-04T22:33:54.809Z,11.33
2019-04-04T22:36:43.640Z,10.13
2019-04-04T22:39:32.480Z,8.68
2019-04-04T22:42:21.447Z,9.75
2019-04-04T22:48:25.371Z,9.03
2019-04-04T22:51:14.193Z,11.60
2019-04-04T22:54:03.057Z,11.70
2019-04-04T22:56:51.905Z,10.30
2019-04-04T22:59:40.755Z,8.93
2019-04-04T23:02:29.619Z,8.95
2019-04-04T23:05:18.428Z,8.00
2019-04-04T23:08:07.698Z,7.90
2019-04-04T23:10:51.284Z,8.30
2019-04-04T23:13:40.113Z,8.68
2019-04-04T23:16:28.934Z,6.80
2019-04-04T23:19:17.777Z,8.30
2019-04-04T23:22:06.628Z,6.95
2019-04-04T23:24:55.464Z,7.87
2019-04-04T23:27:44.305Z,7.85
2019-04-04T23:30:33.126Z,7.78
2019-04-04T23:33:21.963Z,6.87
2019-04-04T23:36:10.795Z,7.72
2019-04-04T23:42:14.893Z,7.47
2019-04-04T23:48:32.086Z,8.53
2019-04-04T23:51:20.931Z,9.95
2019-04-04T23:54:09.773Z,6.50
2019-04-04T23:56:58.593Z,8.18
2019-04-04T23:59:47.452Z,6.85
